sensor_id;sensor_type;location;lat;lon;timestamp;P1;durP1;ratioP1;P2;durP2;ratioP2
61473;SDS011;53694;49.784;30.150;2023-11-21T00:00:27;39.76;;;22.38;;
61473;SDS011;53694;49.784;30.150;2023-11-21T00:01:29;37.42;;;22.24;;
61473;SDS011;53694;49.784;30.150;2023-11-21T00:02:30;36.23;;;22.01;;
61473;SDS011;53694;49.784;30.150;2023-11-21T00:03:32;34.83;;;22.24;;
61473;SDS011;53694;49.784;30.150;2023-11-21T00:04:33;35.89;;;21.79;;
61473;SDS011;53694;49.784;30.150;2023-11-21T00:05:35;35.75;;;22.32;;
61473;SDS011;53694;49.784;30.150;2023-11-21T00:06:36;38.07;;;21.88;;
61473;SDS011;53694;49.784;30.150;2023-11-21T00:07:38;29.83;;;18.48;;
61473;SDS011;53694;49.784;30.150;2023-11-21T00:08:39;31.44;;;16.92;;
61473;SDS011;53694;49.784;30.150;2023-11-21T00:09:41;26.96;;;15.93;;
61473;SDS011;53694;49.784;30.150;2023-11-21T00:11:01;26.27;;;14.63;;
61473;SDS011;53694;49.784;30.150;2023-11-21T00:12:12;27.06;;;14.53;;
61473;SDS011;53694;49.784;30.150;2023-11-21T00:13:13;26.02;;;14.34;;
61473;SDS011;53694;49.784;30.150;2023-11-21T00:14:15;27.39;;;16.65;;
61473;SDS011;53694;49.784;30.150;2023-11-21T00:15:17;31.20;;;17.13;;
61473;SDS011;53694;49.784;30.150;2023-11-21T00:16:18;33.91;;;18.14;;
61473;SDS011;53694;49.784;30.150;2023-11-21T00:17:20;33.19;;;18.19;;
61473;SDS011;53694;49.784;30.150;2023-11-21T00:18:21;32.50;;;19.57;;
61473;SDS011;53694;49.784;30.150;2023-11-21T00:19:23;32.66;;;18.74;;
61473;SDS011;53694;49.784;30.150;2023-11-21T00:20:24;28.89;;;18.10;;
61473;SDS011;53694;49.784;30.150;2023-11-21T00:21:26;31.89;;;18.12;;
61473;SDS011;53694;49.784;30.150;2023-11-21T00:22:28;30.44;;;17.88;;
61473;SDS011;53694;49.784;30.150;2023-11-21T00:23:29;31.74;;;17.76;;
61473;SDS011;53694;49.784;30.150;2023-11-21T00:24:31;32.41;;;18.15;;
61473;SDS011;53694;49.784;30.150;2023-11-21T00:25:32;31.86;;;18.90;;
61473;SDS011;53694;49.784;30.150;2023-11-21T00:26:34;34.05;;;19.19;;
61473;SDS011;53694;49.784;30.150;2023-11-21T00:27:35;32.74;;;19.42;;
61473;SDS011;53694;49.784;30.150;2023-11-21T00:28:37;32.86;;;19.00;;
61473;SDS011;53694;49.784;30.150;2023-11-21T00:29:39;31.18;;;18.71;;
61473;SDS011;53694;49.784;30.150;2023-11-21T00:30:40;35.08;;;19.92;;
61473;SDS011;53694;49.784;30.150;2023-11-21T00:31:42;32.39;;;18.88;;
61473;SDS011;53694;49.784;30.150;2023-11-21T00:32:44;31.65;;;19.02;;
61473;SDS011;53694;49.784;30.150;2023-11-21T00:33:45;29.05;;;17.89;;
61473;SDS011;53694;49.784;30.150;2023-11-21T00:34:47;30.76;;;18.61;;
61473;SDS011;53694;49.784;30.150;2023-11-21T00:35:48;32.04;;;18.58;;
61473;SDS011;53694;49.784;30.150;2023-11-21T00:36:50;33.56;;;19.56;;
61473;SDS011;53694;49.784;30.150;2023-11-21T00:37:51;25.64;;;15.93;;
61473;SDS011;53694;49.784;30.150;2023-11-21T00:38:53;21.74;;;14.13;;
61473;SDS011;53694;49.784;30.150;2023-11-21T00:39:54;21.46;;;13.54;;
61473;SDS011;53694;49.784;30.150;2023-11-21T00:40:56;23.02;;;12.90;;
61473;SDS011;53694;49.784;30.150;2023-11-21T00:41:57;21.04;;;12.04;;
61473;SDS011;53694;49.784;30.150;2023-11-21T00:42:59;21.83;;;12.86;;
61473;SDS011;53694;49.784;30.150;2023-11-21T00:44:00;21.35;;;11.87;;
61473;SDS011;53694;49.784;30.150;2023-11-21T00:45:02;19.70;;;12.66;;
61473;SDS011;53694;49.784;30.150;2023-11-21T00:46:04;23.40;;;13.27;;
61473;SDS011;53694;49.784;30.150;2023-11-21T00:47:06;20.18;;;13.39;;
61473;SDS011;53694;49.784;30.150;2023-11-21T00:48:07;22.19;;;14.01;;
61473;SDS011;53694;49.784;30.150;2023-11-21T00:49:09;24.44;;;14.14;;
61473;SDS011;53694;49.784;30.150;2023-11-21T00:50:11;24.14;;;15.59;;
61473;SDS011;53694;49.784;30.150;2023-11-21T00:51:12;30.93;;;16.33;;
61473;SDS011;53694;49.784;30.150;2023-11-21T00:52:14;29.19;;;16.94;;
61473;SDS011;53694;49.784;30.150;2023-11-21T00:53:15;28.84;;;17.11;;
61473;SDS011;53694;49.784;30.150;2023-11-21T00:54:17;29.86;;;16.94;;
61473;SDS011;53694;49.784;30.150;2023-11-21T00:55:18;29.88;;;17.96;;
61473;SDS011;53694;49.784;30.150;2023-11-21T00:56:20;28.77;;;16.31;;
61473;SDS011;53694;49.784;30.150;2023-11-21T00:57:22;28.84;;;17.09;;
61473;SDS011;53694;49.784;30.150;2023-11-21T00:58:24;30.34;;;19.05;;
61473;SDS011;53694;49.784;30.150;2023-11-21T00:59:25;30.19;;;18.59;;
61473;SDS011;53694;49.784;30.150;2023-11-21T01:00:27;29.92;;;17.29;;
61473;SDS011;53694;49.784;30.150;2023-11-21T01:01:28;32.72;;;18.49;;
61473;SDS011;53694;49.784;30.150;2023-11-21T01:02:30;27.99;;;17.92;;
61473;SDS011;53694;49.784;30.150;2023-11-21T01:03:32;30.21;;;18.54;;
61473;SDS011;53694;49.784;30.150;2023-11-21T01:04:33;29.45;;;15.93;;
61473;SDS011;53694;49.784;30.150;2023-11-21T01:05:34;25.90;;;15.47;;
61473;SDS011;53694;49.784;30.150;2023-11-21T01:06:36;23.34;;;13.13;;
61473;SDS011;53694;49.784;30.150;2023-11-21T01:07:38;25.39;;;12.30;;
61473;SDS011;53694;49.784;30.150;2023-11-21T01:08:40;22.51;;;12.40;;
61473;SDS011;53694;49.784;30.150;2023-11-21T01:09:41;20.49;;;11.66;;
61473;SDS011;53694;49.784;30.150;2023-11-21T01:10:43;20.17;;;11.92;;
61473;SDS011;53694;49.784;30.150;2023-11-21T01:11:44;21.48;;;12.43;;
61473;SDS011;53694;49.784;30.150;2023-11-21T01:12:46;23.73;;;14.32;;
61473;SDS011;53694;49.784;30.150;2023-11-21T01:13:47;24.59;;;14.41;;
61473;SDS011;53694;49.784;30.150;2023-11-21T01:14:49;23.10;;;15.08;;
61473;SDS011;53694;49.784;30.150;2023-11-21T01:15:51;25.90;;;14.77;;
61473;SDS011;53694;49.784;30.150;2023-11-21T01:16:52;26.43;;;15.99;;
61473;SDS011;53694;49.784;30.150;2023-11-21T01:17:55;28.18;;;16.29;;
61473;SDS011;53694;49.784;30.150;2023-11-21T01:18:56;28.28;;;16.51;;
61473;SDS011;53694;49.784;30.150;2023-11-21T01:19:57;30.99;;;17.39;;
61473;SDS011;53694;49.784;30.150;2023-11-21T01:20:59;27.52;;;16.43;;
61473;SDS011;53694;49.784;30.150;2023-11-21T01:22:00;30.60;;;17.15;;
61473;SDS011;53694;49.784;30.150;2023-11-21T01:23:02;31.91;;;18.03;;
61473;SDS011;53694;49.784;30.150;2023-11-21T01:24:04;30.21;;;17.63;;
61473;SDS011;53694;49.784;30.150;2023-11-21T01:25:06;32.58;;;18.79;;
61473;SDS011;53694;49.784;30.150;2023-11-21T01:26:08;31.17;;;17.82;;
61473;SDS011;53694;49.784;30.150;2023-11-21T01:27:10;31.50;;;18.46;;
61473;SDS011;53694;49.784;30.150;2023-11-21T01:28:11;30.94;;;17.87;;
61473;SDS011;53694;49.784;30.150;2023-11-21T01:29:13;30.02;;;18.57;;
61473;SDS011;53694;49.784;30.150;2023-11-21T01:30:14;29.51;;;16.77;;
61473;SDS011;53694;49.784;30.150;2023-11-21T01:31:16;24.24;;;14.22;;
61473;SDS011;53694;49.784;30.150;2023-11-21T01:32:18;25.39;;;13.76;;
61473;SDS011;53694;49.784;30.150;2023-11-21T01:33:19;24.29;;;13.55;;
61473;SDS011;53694;49.784;30.150;2023-11-21T01:34:20;22.39;;;13.14;;
61473;SDS011;53694;49.784;30.150;2023-11-21T01:35:22;23.61;;;13.17;;
61473;SDS011;53694;49.784;30.150;2023-11-21T01:36:29;22.80;;;12.72;;
61473;SDS011;53694;49.784;30.150;2023-11-21T01:37:33;22.47;;;13.06;;
61473;SDS011;53694;49.784;30.150;2023-11-21T01:38:34;22.36;;;13.70;;
61473;SDS011;53694;49.784;30.150;2023-11-21T01:39:36;25.81;;;14.69;;
61473;SDS011;53694;49.784;30.150;2023-11-21T01:40:37;26.23;;;14.95;;
61473;SDS011;53694;49.784;30.150;2023-11-21T01:41:39;26.18;;;15.56;;
61473;SDS011;53694;49.784;30.150;2023-11-21T01:42:41;29.54;;;16.98;;
61473;SDS011;53694;49.784;30.150;2023-11-21T01:43:42;28.64;;;15.90;;
61473;SDS011;53694;49.784;30.150;2023-11-21T01:44:44;33.51;;;17.09;;
61473;SDS011;53694;49.784;30.150;2023-11-21T01:45:46;30.94;;;17.26;;
61473;SDS011;53694;49.784;30.150;2023-11-21T01:46:47;25.84;;;17.18;;
61473;SDS011;53694;49.784;30.150;2023-11-21T01:47:49;27.71;;;16.49;;
61473;SDS011;53694;49.784;30.150;2023-11-21T01:48:51;26.62;;;17.06;;
61473;SDS011;53694;49.784;30.150;2023-11-21T01:49:53;26.82;;;17.05;;
61473;SDS011;53694;49.784;30.150;2023-11-21T01:50:55;26.48;;;16.93;;
61473;SDS011;53694;49.784;30.150;2023-11-21T01:51:57;27.06;;;16.31;;
61473;SDS011;53694;49.784;30.150;2023-11-21T01:52:59;26.10;;;17.27;;
61473;SDS011;53694;49.784;30.150;2023-11-21T01:54:01;26.61;;;14.95;;
61473;SDS011;53694;49.784;30.150;2023-11-21T01:55:04;23.23;;;13.47;;
61473;SDS011;53694;49.784;30.150;2023-11-21T01:56:07;21.08;;;12.32;;
61473;SDS011;53694;49.784;30.150;2023-11-21T01:57:09;22.95;;;11.07;;
61473;SDS011;53694;49.784;30.150;2023-11-21T01:58:11;21.51;;;12.30;;
61473;SDS011;53694;49.784;30.150;2023-11-21T01:59:14;25.65;;;11.76;;
61473;SDS011;53694;49.784;30.150;2023-11-21T02:00:18;20.66;;;11.89;;
61473;SDS011;53694;49.784;30.150;2023-11-21T02:01:20;20.19;;;11.83;;
61473;SDS011;53694;49.784;30.150;2023-11-21T02:02:21;19.74;;;12.50;;
61473;SDS011;53694;49.784;30.150;2023-11-21T02:03:23;19.56;;;12.75;;
61473;SDS011;53694;49.784;30.150;2023-11-21T02:04:25;23.88;;;13.71;;
61473;SDS011;53694;49.784;30.150;2023-11-21T02:05:26;24.54;;;13.84;;
61473;SDS011;53694;49.784;30.150;2023-11-21T02:06:28;27.96;;;17.01;;
61473;SDS011;53694;49.784;30.150;2023-11-21T02:07:30;32.25;;;17.03;;
61473;SDS011;53694;49.784;30.150;2023-11-21T02:08:31;32.00;;;18.59;;
61473;SDS011;53694;49.784;30.150;2023-11-21T02:09:33;31.33;;;18.64;;
61473;SDS011;53694;49.784;30.150;2023-11-21T02:10:35;33.15;;;18.77;;
61473;SDS011;53694;49.784;30.150;2023-11-21T02:11:36;31.84;;;19.23;;
61473;SDS011;53694;49.784;30.150;2023-11-21T02:12:38;30.52;;;18.84;;
61473;SDS011;53694;49.784;30.150;2023-11-21T02:13:39;35.08;;;20.58;;
61473;SDS011;53694;49.784;30.150;2023-11-21T02:14:41;38.54;;;21.35;;
61473;SDS011;53694;49.784;30.150;2023-11-21T02:15:42;43.01;;;23.40;;
61473;SDS011;53694;49.784;30.150;2023-11-21T02:16:44;41.24;;;23.93;;
61473;SDS011;53694;49.784;30.150;2023-11-21T02:17:50;44.85;;;24.17;;
61473;SDS011;53694;49.784;30.150;2023-11-21T02:18:49;53.72;;;28.49;;
61473;SDS011;53694;49.784;30.150;2023-11-21T02:19:52;64.99;;;36.38;;
61473;SDS011;53694;49.784;30.150;2023-11-21T02:20:55;76.06;;;37.75;;
61473;SDS011;53694;49.784;30.150;2023-11-21T02:21:57;73.67;;;37.38;;
61473;SDS011;53694;49.784;30.150;2023-11-21T02:23:00;73.97;;;37.15;;
61473;SDS011;53694;49.784;30.150;2023-11-21T02:24:02;71.48;;;36.34;;
61473;SDS011;53694;49.784;30.150;2023-11-21T02:25:03;67.38;;;36.44;;
61473;SDS011;53694;49.784;30.150;2023-11-21T02:26:05;62.44;;;34.90;;
61473;SDS011;53694;49.784;30.150;2023-11-21T02:27:07;72.49;;;38.03;;
61473;SDS011;53694;49.784;30.150;2023-11-21T02:28:08;76.19;;;39.11;;
61473;SDS011;53694;49.784;30.150;2023-11-21T02:29:10;82.08;;;42.67;;
61473;SDS011;53694;49.784;30.150;2023-11-21T02:30:12;82.71;;;43.32;;
61473;SDS011;53694;49.784;30.150;2023-11-21T02:31:13;83.09;;;45.53;;
61473;SDS011;53694;49.784;30.150;2023-11-21T02:32:15;90.59;;;46.09;;
61473;SDS011;53694;49.784;30.150;2023-11-21T02:33:17;82.13;;;45.68;;
61473;SDS011;53694;49.784;30.150;2023-11-21T02:34:19;81.03;;;44.71;;
61473;SDS011;53694;49.784;30.150;2023-11-21T02:35:20;84.29;;;42.63;;
61473;SDS011;53694;49.784;30.150;2023-11-21T02:36:22;74.63;;;40.17;;
61473;SDS011;53694;49.784;30.150;2023-11-21T02:37:24;72.21;;;39.36;;
61473;SDS011;53694;49.784;30.150;2023-11-21T02:38:25;71.28;;;39.98;;
61473;SDS011;53694;49.784;30.150;2023-11-21T02:39:27;66.96;;;36.84;;
61473;SDS011;53694;49.784;30.150;2023-11-21T02:40:28;67.11;;;35.41;;
61473;SDS011;53694;49.784;30.150;2023-11-21T02:41:30;64.07;;;34.28;;
61473;SDS011;53694;49.784;30.150;2023-11-21T02:42:32;46.57;;;25.89;;
61473;SDS011;53694;49.784;30.150;2023-11-21T02:43:33;44.10;;;23.69;;
61473;SDS011;53694;49.784;30.150;2023-11-21T02:44:35;41.41;;;21.70;;
61473;SDS011;53694;49.784;30.150;2023-11-21T02:45:36;41.34;;;22.47;;
61473;SDS011;53694;49.784;30.150;2023-11-21T02:46:38;44.44;;;24.34;;
61473;SDS011;53694;49.784;30.150;2023-11-21T02:47:39;32.49;;;19.96;;
61473;SDS011;53694;49.784;30.150;2023-11-21T02:48:41;30.52;;;17.47;;
61473;SDS011;53694;49.784;30.150;2023-11-21T02:49:42;27.42;;;17.66;;
61473;SDS011;53694;49.784;30.150;2023-11-21T02:50:44;30.49;;;18.05;;
61473;SDS011;53694;49.784;30.150;2023-11-21T02:51:45;27.76;;;17.86;;
61473;SDS011;53694;49.784;30.150;2023-11-21T02:52:47;31.04;;;18.51;;
61473;SDS011;53694;49.784;30.150;2023-11-21T02:53:48;35.56;;;19.56;;
61473;SDS011;53694;49.784;30.150;2023-11-21T02:54:50;28.53;;;18.79;;
61473;SDS011;53694;49.784;30.150;2023-11-21T02:55:51;35.32;;;20.99;;
61473;SDS011;53694;49.784;30.150;2023-11-21T02:56:53;31.49;;;18.86;;
61473;SDS011;53694;49.784;30.150;2023-11-21T02:57:54;32.56;;;19.16;;
61473;SDS011;53694;49.784;30.150;2023-11-21T02:58:56;36.05;;;19.34;;
61473;SDS011;53694;49.784;30.150;2023-11-21T02:59:58;32.57;;;19.33;;
61473;SDS011;53694;49.784;30.150;2023-11-21T03:01:00;31.35;;;18.78;;
61473;SDS011;53694;49.784;30.150;2023-11-21T03:02:01;28.96;;;18.19;;
61473;SDS011;53694;49.784;30.150;2023-11-21T03:03:03;41.28;;;20.22;;
61473;SDS011;53694;49.784;30.150;2023-11-21T03:04:04;54.18;;;25.81;;
61473;SDS011;53694;49.784;30.150;2023-11-21T03:05:06;48.63;;;23.03;;
61473;SDS011;53694;49.784;30.150;2023-11-21T03:06:09;49.77;;;22.25;;
61473;SDS011;53694;49.784;30.150;2023-11-21T03:07:10;63.31;;;25.37;;
61473;SDS011;53694;49.784;30.150;2023-11-21T03:08:12;64.26;;;28.12;;
61473;SDS011;53694;49.784;30.150;2023-11-21T03:09:13;75.58;;;29.74;;
61473;SDS011;53694;49.784;30.150;2023-11-21T03:10:15;56.89;;;25.07;;
61473;SDS011;53694;49.784;30.150;2023-11-21T03:11:17;67.52;;;29.29;;
61473;SDS011;53694;49.784;30.150;2023-11-21T03:12:18;87.48;;;37.96;;
61473;SDS011;53694;49.784;30.150;2023-11-21T03:13:20;74.38;;;31.76;;
61473;SDS011;53694;49.784;30.150;2023-11-21T03:14:21;79.89;;;35.14;;
61473;SDS011;53694;49.784;30.150;2023-11-21T03:15:23;86.84;;;38.80;;
61473;SDS011;53694;49.784;30.150;2023-11-21T03:16:24;91.49;;;40.04;;
61473;SDS011;53694;49.784;30.150;2023-11-21T03:17:26;87.10;;;40.36;;
61473;SDS011;53694;49.784;30.150;2023-11-21T03:18:27;87.13;;;41.27;;
61473;SDS011;53694;49.784;30.150;2023-11-21T03:19:29;80.14;;;39.41;;
61473;SDS011;53694;49.784;30.150;2023-11-21T03:20:30;75.26;;;36.68;;
61473;SDS011;53694;49.784;30.150;2023-11-21T03:21:32;71.79;;;35.36;;
61473;SDS011;53694;49.784;30.150;2023-11-21T03:22:33;55.95;;;28.84;;
61473;SDS011;53694;49.784;30.150;2023-11-21T03:23:35;48.41;;;27.14;;
61473;SDS011;53694;49.784;30.150;2023-11-21T03:24:37;44.81;;;26.06;;
61473;SDS011;53694;49.784;30.150;2023-11-21T03:25:39;38.79;;;21.74;;
61473;SDS011;53694;49.784;30.150;2023-11-21T03:26:40;33.34;;;19.17;;
61473;SDS011;53694;49.784;30.150;2023-11-21T03:27:42;30.91;;;16.54;;
61473;SDS011;53694;49.784;30.150;2023-11-21T03:28:43;29.65;;;14.76;;
61473;SDS011;53694;49.784;30.150;2023-11-21T03:29:45;24.35;;;14.20;;
61473;SDS011;53694;49.784;30.150;2023-11-21T03:30:47;22.61;;;13.71;;
61473;SDS011;53694;49.784;30.150;2023-11-21T03:31:48;26.01;;;13.73;;
61473;SDS011;53694;49.784;30.150;2023-11-21T03:32:50;22.78;;;12.39;;
61473;SDS011;53694;49.784;30.150;2023-11-21T03:33:51;25.59;;;13.79;;
61473;SDS011;53694;49.784;30.150;2023-11-21T03:34:54;26.28;;;14.07;;
61473;SDS011;53694;49.784;30.150;2023-11-21T03:35:57;23.58;;;14.26;;
61473;SDS011;53694;49.784;30.150;2023-11-21T03:36:58;24.14;;;15.01;;
61473;SDS011;53694;49.784;30.150;2023-11-21T03:38:00;25.42;;;16.06;;
61473;SDS011;53694;49.784;30.150;2023-11-21T03:39:01;25.79;;;16.14;;
61473;SDS011;53694;49.784;30.150;2023-11-21T03:40:04;27.88;;;15.98;;
61473;SDS011;53694;49.784;30.150;2023-11-21T03:41:06;25.17;;;15.95;;
61473;SDS011;53694;49.784;30.150;2023-11-21T03:42:08;30.25;;;16.70;;
61473;SDS011;53694;49.784;30.150;2023-11-21T03:43:09;26.49;;;17.11;;
61473;SDS011;53694;49.784;30.150;2023-11-21T03:44:10;27.57;;;16.39;;
61473;SDS011;53694;49.784;30.150;2023-11-21T03:45:12;29.16;;;16.45;;
61473;SDS011;53694;49.784;30.150;2023-11-21T03:46:14;32.45;;;17.60;;
61473;SDS011;53694;49.784;30.150;2023-11-21T03:47:16;27.84;;;17.43;;
61473;SDS011;53694;49.784;30.150;2023-11-21T03:48:17;24.83;;;15.46;;
61473;SDS011;53694;49.784;30.150;2023-11-21T03:49:19;22.17;;;13.94;;
61473;SDS011;53694;49.784;30.150;2023-11-21T03:50:20;22.73;;;12.57;;
61473;SDS011;53694;49.784;30.150;2023-11-21T03:51:22;26.49;;;12.54;;
61473;SDS011;53694;49.784;30.150;2023-11-21T03:52:24;21.65;;;11.48;;
61473;SDS011;53694;49.784;30.150;2023-11-21T03:53:25;20.29;;;11.38;;
61473;SDS011;53694;49.784;30.150;2023-11-21T03:54:27;21.56;;;11.78;;
61473;SDS011;53694;49.784;30.150;2023-11-21T03:55:28;20.96;;;13.01;;
61473;SDS011;53694;49.784;30.150;2023-11-21T03:56:30;23.81;;;13.82;;
61473;SDS011;53694;49.784;30.150;2023-11-21T03:57:32;24.55;;;14.54;;
61473;SDS011;53694;49.784;30.150;2023-11-21T03:58:33;24.26;;;14.54;;
61473;SDS011;53694;49.784;30.150;2023-11-21T03:59:35;24.19;;;14.76;;
61473;SDS011;53694;49.784;30.150;2023-11-21T04:00:36;23.75;;;14.06;;
61473;SDS011;53694;49.784;30.150;2023-11-21T04:01:37;29.89;;;15.73;;
61473;SDS011;53694;49.784;30.150;2023-11-21T04:02:39;27.54;;;16.45;;
61473;SDS011;53694;49.784;30.150;2023-11-21T04:03:40;26.54;;;15.97;;
61473;SDS011;53694;49.784;30.150;2023-11-21T04:04:42;25.52;;;15.77;;
61473;SDS011;53694;49.784;30.150;2023-11-21T04:05:43;24.94;;;15.76;;
61473;SDS011;53694;49.784;30.150;2023-11-21T04:06:45;30.87;;;16.91;;
61473;SDS011;53694;49.784;30.150;2023-11-21T04:07:47;27.10;;;15.21;;
61473;SDS011;53694;49.784;30.150;2023-11-21T04:08:49;28.15;;;16.80;;
61473;SDS011;53694;49.784;30.150;2023-11-21T04:09:51;25.28;;;15.16;;
61473;SDS011;53694;49.784;30.150;2023-11-21T04:10:53;24.58;;;12.81;;
61473;SDS011;53694;49.784;30.150;2023-11-21T04:11:54;19.96;;;11.64;;
61473;SDS011;53694;49.784;30.150;2023-11-21T04:12:56;19.44;;;11.39;;
61473;SDS011;53694;49.784;30.150;2023-11-21T04:13:57;20.26;;;11.66;;
61473;SDS011;53694;49.784;30.150;2023-11-21T04:14:59;18.64;;;10.99;;
61473;SDS011;53694;49.784;30.150;2023-11-21T04:16:00;19.92;;;10.87;;
61473;SDS011;53694;49.784;30.150;2023-11-21T04:17:02;20.14;;;11.51;;
61473;SDS011;53694;49.784;30.150;2023-11-21T04:18:04;19.59;;;12.15;;
61473;SDS011;53694;49.784;30.150;2023-11-21T04:19:05;23.02;;;12.80;;
61473;SDS011;53694;49.784;30.150;2023-11-21T04:20:07;29.61;;;15.94;;
61473;SDS011;53694;49.784;30.150;2023-11-21T04:21:10;37.59;;;21.06;;
61473;SDS011;53694;49.784;30.150;2023-11-21T04:22:11;49.42;;;28.62;;
61473;SDS011;53694;49.784;30.150;2023-11-21T04:23:13;60.14;;;34.21;;
61473;SDS011;53694;49.784;30.150;2023-11-21T04:24:15;62.83;;;36.76;;
61473;SDS011;53694;49.784;30.150;2023-11-21T04:25:17;86.49;;;46.95;;
61473;SDS011;53694;49.784;30.150;2023-11-21T04:26:19;83.80;;;45.65;;
61473;SDS011;53694;49.784;30.150;2023-11-21T04:27:20;71.79;;;41.39;;
61473;SDS011;53694;49.784;30.150;2023-11-21T04:28:21;72.09;;;39.76;;
61473;SDS011;53694;49.784;30.150;2023-11-21T04:29:23;70.26;;;38.34;;
61473;SDS011;53694;49.784;30.150;2023-11-21T04:30:24;59.68;;;34.69;;
61473;SDS011;53694;49.784;30.150;2023-11-21T04:31:26;58.01;;;33.53;;
61473;SDS011;53694;49.784;30.150;2023-11-21T04:32:27;54.15;;;27.76;;
61473;SDS011;53694;49.784;30.150;2023-11-21T04:33:29;46.54;;;25.13;;
61473;SDS011;53694;49.784;30.150;2023-11-21T04:34:30;47.32;;;24.51;;
61473;SDS011;53694;49.784;30.150;2023-11-21T04:35:32;44.13;;;23.51;;
61473;SDS011;53694;49.784;30.150;2023-11-21T04:36:33;54.81;;;27.58;;
61473;SDS011;53694;49.784;30.150;2023-11-21T04:37:35;48.39;;;25.99;;
61473;SDS011;53694;49.784;30.150;2023-11-21T04:38:36;41.16;;;22.87;;
61473;SDS011;53694;49.784;30.150;2023-11-21T04:39:38;46.37;;;24.76;;
61473;SDS011;53694;49.784;30.150;2023-11-21T04:40:39;48.26;;;25.21;;
61473;SDS011;53694;49.784;30.150;2023-11-21T04:41:41;43.62;;;24.43;;
61473;SDS011;53694;49.784;30.150;2023-11-21T04:42:42;54.84;;;28.16;;
61473;SDS011;53694;49.784;30.150;2023-11-21T04:43:44;54.60;;;26.67;;
61473;SDS011;53694;49.784;30.150;2023-11-21T04:44:46;50.77;;;24.54;;
61473;SDS011;53694;49.784;30.150;2023-11-21T04:45:47;47.47;;;22.16;;
61473;SDS011;53694;49.784;30.150;2023-11-21T04:46:49;42.25;;;21.91;;
61473;SDS011;53694;49.784;30.150;2023-11-21T04:47:50;40.24;;;20.69;;
61473;SDS011;53694;49.784;30.150;2023-11-21T04:48:52;37.83;;;19.31;;
61473;SDS011;53694;49.784;30.150;2023-11-21T04:49:53;38.89;;;19.95;;
61473;SDS011;53694;49.784;30.150;2023-11-21T04:50:55;39.87;;;20.50;;
61473;SDS011;53694;49.784;30.150;2023-11-21T04:51:56;43.13;;;19.04;;
61473;SDS011;53694;49.784;30.150;2023-11-21T04:52:58;27.31;;;15.90;;
61473;SDS011;53694;49.784;30.150;2023-11-21T04:53:59;26.66;;;13.24;;
61473;SDS011;53694;49.784;30.150;2023-11-21T04:55:01;24.45;;;13.26;;
61473;SDS011;53694;49.784;30.150;2023-11-21T04:56:02;22.43;;;11.46;;
61473;SDS011;53694;49.784;30.150;2023-11-21T04:57:04;18.30;;;11.19;;
61473;SDS011;53694;49.784;30.150;2023-11-21T04:58:06;19.93;;;11.09;;
61473;SDS011;53694;49.784;30.150;2023-11-21T04:59:08;19.36;;;11.17;;
61473;SDS011;53694;49.784;30.150;2023-11-21T05:00:09;19.41;;;10.70;;
61473;SDS011;53694;49.784;30.150;2023-11-21T05:01:12;19.72;;;11.41;;
61473;SDS011;53694;49.784;30.150;2023-11-21T05:02:13;19.94;;;11.91;;
61473;SDS011;53694;49.784;30.150;2023-11-21T05:03:14;19.98;;;11.79;;
61473;SDS011;53694;49.784;30.150;2023-11-21T05:04:16;26.54;;;12.51;;
61473;SDS011;53694;49.784;30.150;2023-11-21T05:05:18;21.38;;;12.79;;
61473;SDS011;53694;49.784;30.150;2023-11-21T05:06:19;23.21;;;13.49;;
61473;SDS011;53694;49.784;30.150;2023-11-21T05:07:21;23.62;;;14.13;;
61473;SDS011;53694;49.784;30.150;2023-11-21T05:08:22;26.27;;;15.21;;
61473;SDS011;53694;49.784;30.150;2023-11-21T05:09:24;26.61;;;13.73;;
61473;SDS011;53694;49.784;30.150;2023-11-21T05:10:25;26.66;;;14.49;;
61473;SDS011;53694;49.784;30.150;2023-11-21T05:11:27;30.03;;;14.35;;
61473;SDS011;53694;49.784;30.150;2023-11-21T05:12:30;25.80;;;15.08;;
61473;SDS011;53694;49.784;30.150;2023-11-21T05:13:37;33.13;;;16.14;;
61473;SDS011;53694;49.784;30.150;2023-11-21T05:14:36;27.92;;;15.76;;
61473;SDS011;53694;49.784;30.150;2023-11-21T05:15:37;20.73;;;12.66;;
61473;SDS011;53694;49.784;30.150;2023-11-21T05:16:39;21.69;;;11.75;;
61473;SDS011;53694;49.784;30.150;2023-11-21T05:17:40;20.43;;;11.24;;
61473;SDS011;53694;49.784;30.150;2023-11-21T05:18:42;17.51;;;10.45;;
61473;SDS011;53694;49.784;30.150;2023-11-21T05:19:43;21.94;;;10.37;;
61473;SDS011;53694;49.784;30.150;2023-11-21T05:20:45;22.43;;;11.46;;
61473;SDS011;53694;49.784;30.150;2023-11-21T05:21:46;20.84;;;10.62;;
61473;SDS011;53694;49.784;30.150;2023-11-21T05:22:48;18.70;;;11.16;;
61473;SDS011;53694;49.784;30.150;2023-11-21T05:23:50;20.09;;;10.21;;
61473;SDS011;53694;49.784;30.150;2023-11-21T05:24:51;21.81;;;11.69;;
61473;SDS011;53694;49.784;30.150;2023-11-21T05:25:53;21.98;;;11.52;;
61473;SDS011;53694;49.784;30.150;2023-11-21T05:26:54;18.32;;;11.58;;
61473;SDS011;53694;49.784;30.150;2023-11-21T05:27:56;20.54;;;12.64;;
61473;SDS011;53694;49.784;30.150;2023-11-21T05:28:57;24.94;;;13.40;;
61473;SDS011;53694;49.784;30.150;2023-11-21T05:29:59;26.55;;;14.81;;
61473;SDS011;53694;49.784;30.150;2023-11-21T05:31:02;22.93;;;15.21;;
61473;SDS011;53694;49.784;30.150;2023-11-21T05:32:03;29.51;;;15.18;;
61473;SDS011;53694;49.784;30.150;2023-11-21T05:33:05;24.41;;;14.70;;
61473;SDS011;53694;49.784;30.150;2023-11-21T05:34:07;26.09;;;14.54;;
61473;SDS011;53694;49.784;30.150;2023-11-21T05:35:08;23.72;;;15.19;;
61473;SDS011;53694;49.784;30.150;2023-11-21T05:36:10;26.50;;;14.80;;
61473;SDS011;53694;49.784;30.150;2023-11-21T05:37:11;25.83;;;16.00;;
61473;SDS011;53694;49.784;30.150;2023-11-21T05:38:13;22.72;;;13.44;;
61473;SDS011;53694;49.784;30.150;2023-11-21T05:39:15;25.67;;;12.52;;
61473;SDS011;53694;49.784;30.150;2023-11-21T05:40:17;19.28;;;11.21;;
61473;SDS011;53694;49.784;30.150;2023-11-21T05:41:18;19.01;;;11.50;;
61473;SDS011;53694;49.784;30.150;2023-11-21T05:42:20;21.46;;;11.10;;
61473;SDS011;53694;49.784;30.150;2023-11-21T05:43:21;22.44;;;11.46;;
61473;SDS011;53694;49.784;30.150;2023-11-21T05:44:23;19.56;;;10.98;;
61473;SDS011;53694;49.784;30.150;2023-11-21T05:45:24;19.12;;;10.14;;
61473;SDS011;53694;49.784;30.150;2023-11-21T05:46:26;19.66;;;10.81;;
61473;SDS011;53694;49.784;30.150;2023-11-21T05:47:27;19.94;;;11.42;;
61473;SDS011;53694;49.784;30.150;2023-11-21T05:48:29;19.99;;;11.89;;
61473;SDS011;53694;49.784;30.150;2023-11-21T05:49:30;21.09;;;12.27;;
61473;SDS011;53694;49.784;30.150;2023-11-21T05:50:32;20.64;;;12.66;;
61473;SDS011;53694;49.784;30.150;2023-11-21T05:51:33;23.64;;;13.44;;
61473;SDS011;53694;49.784;30.150;2023-11-21T05:52:35;22.26;;;14.08;;
61473;SDS011;53694;49.784;30.150;2023-11-21T05:53:37;24.09;;;14.35;;
61473;SDS011;53694;49.784;30.150;2023-11-21T05:54:39;25.46;;;15.68;;
61473;SDS011;53694;49.784;30.150;2023-11-21T05:55:41;28.07;;;16.30;;